createdAt,value
2023-02-03T00:01:07.753Z,102456.94
2023-02-03T00:02:42.571Z,102447.41
2023-02-03T00:04:14.868Z,102443.03
2023-02-03T00:05:47.444Z,102442.16
2023-02-03T00:07:20.489Z,102443.88
2023-02-03T00:09:01.017Z,102441.28
2023-02-03T00:10:37.609Z,102438.72
2023-02-03T00:12:09.832Z,102444.81
2023-02-03T00:13:42.088Z,102443.03
2023-02-03T00:15:14.449Z,102442.19
2023-02-03T00:16:46.636Z,102441.34
2023-02-03T00:18:20.326Z,102431.81
2023-02-03T00:19:52.388Z,102432.69
2023-02-03T00:21:24.728Z,102431.84
2023-02-03T00:23:04.169Z,102431.00
2023-02-03T00:24:41.799Z,102443.09
2023-02-03T00:26:16.674Z,102430.09
2023-02-03T00:27:52.598Z,102418.81
2023-02-03T00:29:27.646Z,102402.22
2023-02-03T00:31:01.164Z,102410.97
2023-02-03T00:32:33.640Z,102414.44
2023-02-03T00:34:05.831Z,102410.97
2023-02-03T00:35:42.250Z,102415.28
2023-02-03T00:37:14.416Z,102419.59
2023-02-03T00:38:50.291Z,102412.66
2023-02-03T00:40:31.423Z,102425.72
2023-02-03T00:42:07.714Z,102426.56
2023-02-03T00:43:44.262Z,102427.41
2023-02-03T00:45:16.738Z,102420.41
2023-02-03T00:46:49.010Z,102434.34
2023-02-03T00:48:21.504Z,102427.41
2023-02-03T00:49:56.774Z,102416.97
2023-02-03T00:51:28.973Z,102422.19
2023-02-03T00:53:01.159Z,102430.94
2023-02-03T00:54:35.709Z,102441.41
2023-02-03T00:56:28.889Z,102433.59
2023-02-03T00:58:03.497Z,102444.88
2023-02-03T00:59:36.288Z,102449.25
2023-02-03T01:01:09.216Z,102444.00
2023-02-03T01:02:44.293Z,102448.34
2023-02-03T01:04:20.823Z,102439.63
2023-02-03T01:05:53.118Z,102456.13
2023-02-03T01:07:25.300Z,102458.69
2023-02-03T01:08:57.750Z,102463.97
2023-02-03T01:10:30.473Z,102460.47
2023-02-03T01:12:02.787Z,102458.69
2023-02-03T01:13:37.384Z,102469.13
2023-02-03T01:15:14.521Z,102460.47
2023-02-03T01:16:48.653Z,102471.78
2023-02-03T01:18:26.227Z,102482.31
2023-02-03T01:19:58.642Z,102478.03
2023-02-03T01:21:36.380Z,102476.28
2023-02-03T01:23:13.523Z,102479.72
2023-02-03T01:24:51.052Z,102490.16
2023-02-03T01:26:26.967Z,102487.50
2023-02-03T01:27:59.114Z,102475.41
2023-02-03T01:29:31.421Z,102478.81
2023-02-03T01:31:31.835Z,102479.72
2023-02-03T01:33:08.060Z,102490.94
2023-02-03T01:34:40.263Z,102489.19
2023-02-03T01:36:17.625Z,102492.69
2023-02-03T01:37:52.370Z,102486.63
2023-02-03T01:39:29.310Z,102480.56
2023-02-03T01:41:01.699Z,102470.94
2023-02-03T01:42:36.689Z,102477.88
2023-02-03T01:44:36.537Z,102483.19
2023-02-03T01:46:26.431Z,102465.75
2023-02-03T01:48:02.361Z,102464.88
2023-02-03T01:49:40.051Z,102468.31
2023-02-03T01:51:12.368Z,102462.28
2023-02-03T01:52:53.396Z,102477.09
2023-02-03T01:54:31.287Z,102470.13
2023-02-03T01:56:06.871Z,102472.75
2023-02-03T01:57:59.560Z,102484.06
2023-02-03T01:59:40.504Z,102490.16
2023-02-03T02:01:12.941Z,102491.03
2023-02-03T02:02:57.780Z,102481.50
2023-02-03T02:04:58.661Z,102466.69
2023-02-03T02:06:31.894Z,102469.28
2023-02-03T02:08:24.417Z,102466.69
2023-02-03T02:09:57.210Z,102459.69
2023-02-03T02:11:39.275Z,102464.91
2023-02-03T02:13:16.565Z,102463.19
2023-02-03T02:14:51.255Z,102450.09
2023-02-03T02:16:26.414Z,102444.94
2023-02-03T02:18:20.076Z,102435.34
2023-02-03T02:20:28.076Z,102431.00
2023-02-03T02:22:09.216Z,102418.81
2023-02-03T02:24:33.015Z,102414.47
2023-02-03T02:26:17.694Z,102417.97
2023-02-03T02:33:48.297Z,102419.56
2023-02-03T02:36:03.464Z,102411.69
2023-02-03T02:37:57.580Z,102426.50
2023-02-03T02:45:40.982Z,102412.63
2023-02-03T02:47:25.598Z,102434.34
2023-02-03T02:49:04.110Z,102442.19
2023-02-03T02:50:40.569Z,102431.81
2023-02-03T02:52:15.021Z,102432.69
2023-02-03T02:53:53.516Z,102432.69
2023-02-03T02:55:29.196Z,102425.72
2023-02-03T02:57:05.790Z,102428.31
2023-02-03T02:58:39.891Z,102422.25
2023-02-03T03:00:14.217Z,102429.19
2023-02-03T03:01:47.727Z,102417.03
2023-02-03T03:06:07.124Z,102411.81
2023-02-03T03:07:50.918Z,102423.06
2023-02-03T03:09:45.573Z,102421.28
2023-02-03T03:11:22.194Z,102423.94
2023-02-03T03:12:58.949Z,102417.91
2023-02-03T03:14:40.043Z,102419.66
2023-02-03T03:16:17.025Z,102422.25
2023-02-03T03:17:54.886Z,102425.78
2023-02-03T03:19:40.358Z,102420.56
2023-02-03T03:21:23.225Z,102427.56
2023-02-03T03:23:07.975Z,102424.94
2023-02-03T03:24:51.379Z,102430.19
2023-02-03T03:27:10.021Z,102435.38
2023-02-03T03:28:49.060Z,102443.16
2023-02-03T03:30:24.372Z,102434.47
2023-02-03T03:31:56.771Z,102439.72
2023-02-03T03:33:29.112Z,102434.53
2023-02-03T03:35:02.247Z,102421.53
2023-02-03T03:36:42.708Z,102413.72
2023-02-03T03:38:20.851Z,102407.63
2023-02-03T03:40:00.386Z,102422.41
2023-02-03T03:41:40.483Z,102416.31
2023-02-03T03:43:22.123Z,102420.66
2023-02-03T03:45:23.004Z,102421.56
2023-02-03T03:47:28.082Z,102412.00
2023-02-03T03:49:04.173Z,102411.09
2023-02-03T03:50:41.104Z,102402.41
2023-02-03T03:52:17.317Z,102411.13
2023-02-03T03:53:51.581Z,102409.41
2023-02-03T03:55:23.957Z,102425.94
2023-02-03T03:57:03.006Z,102399.03
2023-02-03T03:58:39.770Z,102396.44
2023-02-03T04:00:19.901Z,102409.47
2023-02-03T04:01:53.235Z,102420.72
2023-02-03T04:03:30.642Z,102398.97
2023-02-03T04:05:03.564Z,102399.84
2023-02-03T04:06:36.763Z,102414.63
2023-02-03T04:08:09.017Z,102411.97
2023-02-03T04:09:44.062Z,102413.72
2023-02-03T04:11:36.168Z,102418.91
2023-02-03T04:13:12.593Z,102413.72
2023-02-03T04:14:48.016Z,102420.72
2023-02-03T04:16:20.279Z,102405.06
2023-02-03T04:17:52.679Z,102419.91
2023-02-03T04:19:25.018Z,102413.84
2023-02-03T04:20:57.118Z,102409.50
2023-02-03T04:22:29.236Z,102406.06
2023-02-03T04:24:01.559Z,102419.94
2023-02-03T04:25:42.993Z,102417.38
2023-02-03T04:27:15.154Z,102416.47
2023-02-03T04:28:47.341Z,102416.50
2023-02-03T04:30:21.903Z,102418.22
2023-02-03T04:31:54.173Z,102426.03
2023-02-03T04:33:26.230Z,102417.38
2023-02-03T04:34:58.967Z,102431.28
2023-02-03T04:36:31.197Z,102425.16
2023-02-03T04:38:03.255Z,102433.03
2023-02-03T04:39:35.505Z,102422.59
2023-02-03T04:41:07.745Z,102404.28
2023-02-03T04:42:42.378Z,102424.31
2023-02-03T04:44:14.546Z,102411.28
2023-02-03T04:45:46.537Z,102413.84
2023-02-03T04:47:19.363Z,102414.69
2023-02-03T04:48:51.465Z,102409.50
2023-02-03T04:50:40.642Z,102414.72
2023-02-03T04:52:13.203Z,102408.66
2023-02-03T04:53:45.253Z,102416.53
2023-02-03T04:55:17.510Z,102408.63
2023-02-03T04:56:49.642Z,102418.22
2023-02-03T04:58:21.954Z,102408.63
2023-02-03T04:59:54.214Z,102416.50
2023-02-03T05:01:28.117Z,102405.16
2023-02-03T05:03:00.289Z,102413.84
2023-02-03T05:04:32.876Z,102419.06
2023-02-03T05:06:05.795Z,102405.16
2023-02-03T05:07:37.746Z,102412.16
2023-02-03T05:09:09.835Z,102403.41
2023-02-03T05:10:42.039Z,102406.03
2023-02-03T05:12:14.263Z,102398.19
2023-02-03T05:13:50.569Z,102396.50
2023-02-03T05:15:22.778Z,102392.97
2023-02-03T05:19:45.154Z,102386.00
2023-02-03T05:21:18.778Z,102377.31
2023-02-03T05:22:50.959Z,102372.09
2023-02-03T05:24:23.160Z,102381.66
2023-02-03T05:25:55.383Z,102368.53
2023-02-03T05:27:29.996Z,102373.81
2023-02-03T05:29:12.004Z,102378.97
2023-02-03T05:30:44.339Z,102394.63
2023-02-03T05:32:17.348Z,102402.47
2023-02-03T05:33:49.611Z,102410.25
2023-02-03T05:35:21.770Z,102411.13
2023-02-03T05:36:53.958Z,102410.28
2023-02-03T05:38:29.164Z,102408.53
2023-02-03T05:40:21.320Z,102415.50
2023-02-03T05:42:02.164Z,102405.97
2023-02-03T05:43:46.155Z,102436.44
2023-02-03T05:45:34.815Z,102431.28
2023-02-03T05:47:14.379Z,102438.25
2023-02-03T05:48:50.224Z,102436.53
2023-02-03T05:50:29.038Z,102427.81
2023-02-03T05:54:09.315Z,102433.88
2023-02-03T05:55:42.906Z,102439.97
2023-02-03T05:57:16.517Z,102431.31
2023-02-03T05:58:48.633Z,102446.09
2023-02-03T06:00:25.800Z,102432.19
2023-02-03T06:02:01.199Z,102436.56
2023-02-03T06:03:46.025Z,102431.38
2023-02-03T06:05:25.912Z,102437.47
2023-02-03T06:07:00.244Z,102435.75
2023-02-03T06:08:35.024Z,102420.09
2023-02-03T06:10:07.829Z,102421.88
2023-02-03T06:11:43.331Z,102420.13
2023-02-03T06:13:16.907Z,102429.72
2023-02-03T06:14:51.680Z,102424.50
2023-02-03T06:16:25.149Z,102416.72
2023-02-03T06:17:58.665Z,102434.09
2023-02-03T06:19:31.101Z,102421.06
2023-02-03T06:21:03.401Z,102435.03
2023-02-03T06:22:38.696Z,102436.72
2023-02-03T06:24:21.074Z,102433.22
2023-02-03T06:25:55.755Z,102447.16
2023-02-03T06:27:27.882Z,102440.16
2023-02-03T06:29:00.237Z,102427.97
2023-02-03T06:30:32.464Z,102436.69
2023-02-03T06:32:06.989Z,102434.03
2023-02-03T06:33:39.195Z,102440.09
2023-02-03T06:35:11.264Z,102437.47
2023-02-03T06:36:46.287Z,102427.88
2023-02-03T06:38:18.558Z,102425.25
2023-02-03T06:39:50.867Z,102421.75
2023-02-03T06:41:28.919Z,102424.44
2023-02-03T06:43:02.412Z,102414.91
2023-02-03T06:44:34.569Z,102421.91
2023-02-03T06:46:06.829Z,102409.75
2023-02-03T06:47:43.022Z,102432.34
2023-02-03T06:49:17.500Z,102409.69
2023-02-03T06:50:49.861Z,102424.50
2023-02-03T06:52:21.917Z,102412.34
2023-02-03T06:53:54.035Z,102422.78
2023-02-03T06:55:26.205Z,102429.72
2023-02-03T06:56:58.359Z,102421.06
2023-02-03T06:58:30.535Z,102421.03
2023-02-03T07:00:03.061Z,102427.09
2023-02-03T07:01:35.261Z,102435.84
2023-02-03T07:03:07.626Z,102431.50
2023-02-03T07:04:39.927Z,102431.50
2023-02-03T07:06:11.979Z,102431.50
2023-02-03T07:07:44.140Z,102441.94
2023-02-03T07:09:16.427Z,102437.59
2023-02-03T07:10:48.596Z,102421.94
2023-02-03T07:12:20.679Z,102432.41
2023-02-03T07:13:53.289Z,102416.84
2023-02-03T07:15:26.075Z,102422.00
2023-02-03T07:16:58.457Z,102428.91
2023-02-03T07:18:46.798Z,102425.47
2023-02-03T07:20:19.238Z,102428.97
2023-02-03T07:21:52.761Z,102439.41
2023-02-03T07:23:24.907Z,102436.78
2023-02-03T07:24:57.181Z,102433.25
2023-02-03T07:26:31.693Z,102438.47
2023-02-03T07:28:04.113Z,102439.34
2023-02-03T07:29:36.318Z,102439.34
2023-02-03T07:31:10.709Z,102443.78
2023-02-03T07:32:50.831Z,102447.25
2023-02-03T07:34:24.152Z,102451.59
2023-02-03T07:35:58.313Z,102449.00
2023-02-03T07:37:32.952Z,102439.44
2023-02-03T07:39:05.298Z,102434.22
2023-02-03T07:40:37.416Z,102444.66
2023-02-03T07:42:09.686Z,102442.09
2023-02-03T07:43:49.431Z,102444.66
2023-02-03T07:45:22.424Z,102455.09
2023-02-03T07:46:55.606Z,102431.66
2023-02-03T07:48:30.299Z,102438.59
2023-02-03T07:50:05.458Z,102436.91
2023-02-03T07:51:38.039Z,102443.81
2023-02-03T07:53:10.185Z,102425.53
2023-02-03T07:54:44.884Z,102429.88
2023-02-03T07:56:18.923Z,102443.81
2023-02-03T07:57:57.401Z,102450.75
2023-02-03T07:59:29.554Z,102449.00
2023-02-03T08:01:01.976Z,102449.88
2023-02-03T08:02:34.230Z,102449.00
2023-02-03T08:04:06.441Z,102435.97
2023-02-03T08:05:42.009Z,102452.47
2023-02-03T08:07:16.524Z,102453.34
2023-02-03T08:08:50.821Z,102458.59
2023-02-03T08:10:23.388Z,102460.31
2023-02-03T08:12:00.384Z,102459.44
2023-02-03T08:13:32.553Z,102464.66
2023-02-03T08:15:05.528Z,102469.00
2023-02-03T08:16:37.903Z,102469.94
2023-02-03T08:18:13.145Z,102467.34
2023-02-03T08:19:49.215Z,102475.97
2023-02-03T08:21:21.646Z,102473.41
2023-02-03T08:22:56.487Z,102485.59
2023-02-03T08:24:28.834Z,102485.56
2023-02-03T08:26:01.144Z,102489.06
2023-02-03T08:27:35.802Z,102478.59
2023-02-03T08:29:08.219Z,102484.69
2023-02-03T08:30:40.398Z,102489.91
2023-02-03T08:32:15.920Z,102485.56
2023-02-03T08:33:50.603Z,102486.47
2023-02-03T08:35:22.825Z,102485.53
2023-02-03T08:36:55.047Z,102490.75
2023-02-03T08:38:34.813Z,102489.91
2023-02-03T08:40:07.735Z,102490.75
2023-02-03T08:41:39.802Z,102507.41
2023-02-03T08:43:12.377Z,102499.53
2023-02-03T08:44:45.830Z,102502.97
2023-02-03T08:46:18.093Z,102499.44
2023-02-03T08:47:51.619Z,102513.31
2023-02-03T08:49:26.238Z,102514.16
2023-02-03T08:50:59.016Z,102503.69
2023-02-03T08:52:31.213Z,102509.78
2023-02-03T08:54:04.272Z,102514.09
2023-02-03T08:55:40.215Z,102511.47
2023-02-03T08:57:13.913Z,102523.69
2023-02-03T08:58:47.637Z,102515.88
2023-02-03T09:00:20.394Z,102505.44
2023-02-03T09:01:53.390Z,102515.88
2023-02-03T09:03:26.424Z,102513.31
2023-02-03T09:05:01.832Z,102501.97
2023-02-03T09:06:35.613Z,102501.97
2023-02-03T09:08:07.885Z,102502.88
2023-02-03T09:09:40.312Z,102502.03
2023-02-03T09:11:16.565Z,102495.09
2023-02-03T09:12:51.989Z,102495.16
2023-02-03T09:14:25.584Z,102504.81
2023-02-03T09:16:01.044Z,102500.47
2023-02-03T09:17:33.179Z,102524.00
2023-02-03T09:19:07.815Z,102510.06
2023-02-03T09:20:40.034Z,102525.81
2023-02-03T09:22:14.935Z,102519.66
2023-02-03T09:23:52.368Z,102510.06
2023-02-03T09:25:24.719Z,102518.81
2023-02-03T09:26:57.362Z,102508.34
2023-02-03T09:28:29.811Z,102517.03
2023-02-03T09:30:02.101Z,102510.97
2023-02-03T09:31:36.744Z,102511.88
2023-02-03T09:33:09.545Z,102517.97
2023-02-03T09:34:44.210Z,102520.63
2023-02-03T09:36:16.520Z,102514.56
2023-02-03T09:37:49.230Z,102519.78
2023-02-03T09:39:21.443Z,102522.38
2023-02-03T09:41:10.591Z,102512.03
2023-02-03T09:43:31.857Z,102515.47
2023-02-03T09:45:28.553Z,102522.47
2023-02-03T09:47:11.714Z,102519.00
2023-02-03T09:49:12.759Z,102512.97
2023-02-03T09:50:56.495Z,102520.84
2023-02-03T09:52:34.531Z,102528.75
2023-02-03T09:54:12.182Z,102529.69
2023-02-03T09:55:48.037Z,102526.22
2023-02-03T09:57:25.833Z,102533.22
2023-02-03T09:58:58.199Z,102530.59
2023-02-03T10:00:38.652Z,102520.16
2023-02-03T10:02:28.652Z,102529.75
2023-02-03T10:04:30.059Z,102530.69
2023-02-03T10:06:19.027Z,102528.06
2023-02-03T10:08:14.151Z,102529.88
2023-02-03T10:10:10.439Z,102526.53
2023-02-03T10:12:14.283Z,102536.13
2023-02-03T10:13:59.007Z,102523.09
2023-02-03T10:16:08.141Z,102519.66
2023-02-03T10:17:53.428Z,102519.72
2023-02-03T10:20:07.157Z,102517.16
2023-02-03T10:21:47.511Z,102526.75
2023-02-03T10:23:40.630Z,102521.47
2023-02-03T10:25:22.231Z,102545.91
2023-02-03T10:26:54.702Z,102533.78
2023-02-03T10:29:03.621Z,102534.72
2023-02-03T10:30:45.973Z,102523.53
2023-02-03T10:32:18.355Z,102528.84
2023-02-03T10:34:03.909Z,102535.78
2023-02-03T10:36:10.645Z,102526.28
2023-02-03T10:37:49.278Z,102518.53
2023-02-03T10:39:43.520Z,102525.47
2023-02-03T10:41:17.077Z,102516.84
2023-02-03T10:43:08.487Z,102519.53
2023-02-03T10:45:04.679Z,102527.38
2023-02-03T10:46:44.016Z,102517.03
2023-02-03T10:48:18.089Z,102514.44
2023-02-03T10:49:56.490Z,102524.91
2023-02-03T10:51:32.162Z,102525.78
2023-02-03T10:53:26.861Z,102523.25
2023-02-03T10:55:28.090Z,102521.53
2023-02-03T10:57:16.817Z,102514.56
2023-02-03T10:58:51.674Z,102521.50
2023-02-03T11:00:29.679Z,102517.16
2023-02-03T11:02:09.072Z,102523.22
2023-02-03T11:04:02.288Z,102521.53
2023-02-03T11:05:34.914Z,102509.28
2023-02-03T11:07:11.464Z,102520.59
2023-02-03T11:08:46.224Z,102521.53
2023-02-03T11:10:41.092Z,102529.34
2023-02-03T11:12:22.097Z,102512.78
2023-02-03T11:14:17.051Z,102520.59
2023-02-03T11:15:54.436Z,102527.59
2023-02-03T11:17:30.961Z,102536.31
2023-02-03T11:19:09.929Z,102519.78
2023-02-03T11:20:43.712Z,102521.53
2023-02-03T11:22:34.819Z,102515.44
2023-02-03T11:24:36.252Z,102522.44
2023-02-03T11:26:15.504Z,102518.97
2023-02-03T11:29:52.855Z,102531.16
2023-02-03T11:31:32.446Z,102525.84
2023-02-03T11:33:16.457Z,102538.06
2023-02-03T11:34:59.392Z,102534.66
2023-02-03T11:36:34.162Z,102532.81
2023-02-03T11:38:33.243Z,102534.59
2023-02-03T11:40:08.422Z,102538.94
2023-02-03T11:41:41.056Z,102547.69
2023-02-03T11:43:17.487Z,102549.47
2023-02-03T11:44:50.544Z,102534.59
2023-02-03T11:46:23.707Z,102535.41
2023-02-03T11:48:17.685Z,102538.06
2023-02-03T11:50:15.908Z,102531.06
2023-02-03T11:52:11.724Z,102533.72
2023-02-03T11:53:57.956Z,102541.59
2023-02-03T11:55:41.815Z,102542.44
2023-02-03T11:57:48.401Z,102534.63
2023-02-03T11:59:31.987Z,102532.91
2023-02-03T12:01:25.890Z,102541.66
2023-02-03T12:03:03.981Z,102533.81
2023-02-03T12:04:54.758Z,102538.13
2023-02-03T12:06:39.024Z,102537.31
2023-02-03T12:08:11.098Z,102542.59
2023-02-03T12:09:58.474Z,102543.53
2023-02-03T12:11:59.411Z,102533.91
2023-02-03T12:13:46.420Z,102533.94
2023-02-03T12:15:38.873Z,102537.31
2023-02-03T12:17:18.717Z,102543.53
2023-02-03T12:19:01.033Z,102543.53
2023-02-03T12:20:40.995Z,102540.94
2023-02-03T12:22:22.545Z,102546.22
2023-02-03T12:24:45.474Z,102546.25
2023-02-03T12:26:23.278Z,102534.09
2023-02-03T12:28:27.453Z,102533.19
2023-02-03T12:30:17.694Z,102529.66
2023-02-03T12:32:08.030Z,102517.47
2023-02-03T12:33:44.779Z,102531.47
2023-02-03T12:35:19.494Z,102546.34
2023-02-03T12:36:59.280Z,102542.91
2023-02-03T12:38:54.766Z,102537.69
2023-02-03T12:40:39.910Z,102555.13
2023-02-03T12:42:13.697Z,102563.00
2023-02-03T12:43:52.877Z,102560.38
2023-02-03T12:45:31.013Z,102564.75
2023-02-03T12:47:08.239Z,102550.81
2023-02-03T12:48:55.036Z,102567.31
2023-02-03T12:50:35.558Z,102563.75
2023-02-03T12:52:19.929Z,102575.09
2023-02-03T12:53:55.616Z,102566.41
2023-02-03T12:55:51.256Z,102564.75
2023-02-03T12:57:47.628Z,102563.84
2023-02-03T12:59:26.814Z,102566.50
2023-02-03T13:01:00.172Z,102566.56
2023-02-03T13:02:38.182Z,102566.59
2023-02-03T13:04:33.560Z,102552.69
2023-02-03T13:06:17.525Z,102554.44
2023-02-03T13:07:54.658Z,102552.69
2023-02-03T13:09:45.043Z,102555.34
2023-02-03T13:11:31.845Z,102548.38
2023-02-03T13:13:07.907Z,102552.75
2023-02-03T13:14:50.425Z,102552.78
2023-02-03T13:16:29.182Z,102557.13
2023-02-03T13:18:34.052Z,102564.16
2023-02-03T13:20:21.013Z,102561.50
2023-02-03T13:21:53.207Z,102558.94
2023-02-03T13:23:25.774Z,102559.84
2023-02-03T13:25:13.644Z,102565.91
2023-02-03T13:27:07.740Z,102570.25
2023-02-03T13:28:55.108Z,102571.13
2023-02-03T13:30:36.455Z,102578.09
2023-02-03T13:32:39.981Z,102571.13
2023-02-03T13:34:50.951Z,102551.94
2023-02-03T13:36:38.100Z,102549.41
2023-02-03T13:38:40.704Z,102546.03
2023-02-03T13:40:18.621Z,102544.31
2023-02-03T13:42:21.091Z,102546.22
2023-02-03T13:43:53.766Z,102548.78
2023-02-03T13:45:39.696Z,102549.78
2023-02-03T13:47:22.559Z,102549.81
2023-02-03T13:48:57.380Z,102551.72
2023-02-03T13:50:30.816Z,102544.72
2023-02-03T13:52:03.821Z,102550.09
2023-02-03T13:53:36.939Z,102549.38
2023-02-03T13:55:40.123Z,102553.78
2023-02-03T13:57:34.720Z,102545.09
2023-02-03T13:59:16.095Z,102541.66
2023-02-03T14:00:50.447Z,102536.41
2023-02-03T14:02:22.606Z,102543.44
2023-02-03T14:03:55.668Z,102539.09
2023-02-03T14:05:52.536Z,102541.81
2023-02-03T14:07:27.307Z,102551.41
2023-02-03T14:08:59.895Z,102550.47
2023-02-03T14:10:32.385Z,102545.25
2023-02-03T14:12:40.561Z,102546.09
2023-02-03T14:14:12.643Z,102553.91
2023-02-03T14:15:47.018Z,102553.00
2023-02-03T14:17:38.269Z,102554.63
2023-02-03T14:19:22.175Z,102548.44
2023-02-03T14:20:57.848Z,102546.63
2023-02-03T14:22:30.738Z,102547.41
2023-02-03T14:24:06.981Z,102552.66
2023-02-03T14:25:44.504Z,102569.22
2023-02-03T14:27:20.595Z,102556.13
2023-02-03T14:28:55.297Z,102555.25
2023-02-03T14:30:27.779Z,102552.63
2023-02-03T14:32:08.493Z,102554.34
2023-02-03T14:33:58.490Z,102557.88
2023-02-03T14:35:32.347Z,102552.69
2023-02-03T14:37:34.305Z,102555.38
2023-02-03T14:39:21.506Z,102548.38
2023-02-03T14:40:58.764Z,102563.19
2023-02-03T14:43:10.875Z,102561.41
2023-02-03T14:44:51.550Z,102562.25
2023-02-03T14:46:42.069Z,102564.84
2023-02-03T14:48:32.693Z,102570.09
2023-02-03T14:50:49.599Z,102567.44
2023-02-03T14:52:45.629Z,102573.53
2023-02-03T14:54:27.922Z,102584.78
2023-02-03T14:56:58.610Z,102588.22
2023-02-03T14:58:35.263Z,102590.75
2023-02-03T15:00:11.133Z,102580.25
2023-02-03T15:01:45.416Z,102593.28
2023-02-03T15:03:22.738Z,102599.41
2023-02-03T15:05:12.809Z,102604.53
2023-02-03T15:06:50.343Z,102608.81
2023-02-03T15:08:44.611Z,102614.03
2023-02-03T15:10:21.130Z,102619.19
2023-02-03T15:11:53.459Z,102629.56
2023-02-03T15:13:27.189Z,102644.19
2023-02-03T15:15:24.897Z,102644.16
2023-02-03T15:17:05.050Z,102655.38
2023-02-03T15:18:41.030Z,102656.91
2023-02-03T15:20:35.670Z,102660.03
2023-02-03T15:22:20.671Z,102653.63
2023-02-03T15:23:57.641Z,102652.63
2023-02-03T15:25:35.080Z,102649.00
2023-02-03T15:27:22.407Z,102642.78
2023-02-03T15:29:07.305Z,102646.22
2023-02-03T15:30:40.374Z,102642.56
2023-02-03T15:32:23.746Z,102651.19
2023-02-03T15:33:58.966Z,102652.97
2023-02-03T15:35:35.501Z,102656.38
2023-02-03T15:37:37.717Z,102662.44
2023-02-03T15:39:49.039Z,102655.44
2023-02-03T15:41:24.286Z,102655.38
2023-02-03T15:43:05.133Z,102655.38
2023-02-03T15:44:45.885Z,102657.97
2023-02-03T15:46:19.474Z,102679.72
2023-02-03T15:47:55.802Z,102673.53
2023-02-03T15:49:36.009Z,102673.69
2023-02-03T15:51:17.994Z,102671.94
2023-02-03T15:52:52.210Z,102676.25
2023-02-03T15:54:41.799Z,102674.56
2023-02-03T15:56:30.752Z,102670.19
2023-02-03T15:58:03.037Z,102674.53
2023-02-03T15:59:46.528Z,102676.16
2023-02-03T16:01:23.364Z,102683.22
2023-02-03T16:02:58.290Z,102676.22
2023-02-03T16:04:31.244Z,102676.16
2023-02-03T16:06:25.532Z,102676.16
2023-02-03T16:07:58.603Z,102670.94
2023-02-03T16:09:35.686Z,102678.72
2023-02-03T16:11:32.528Z,102685.81
2023-02-03T16:13:19.070Z,102690.97
2023-02-03T16:14:51.869Z,102689.22
2023-02-03T16:17:06.309Z,102695.28
2023-02-03T16:18:40.353Z,102696.13
2023-02-03T16:20:14.270Z,102709.16
2023-02-03T16:21:51.760Z,102710.84
2023-02-03T16:23:30.172Z,102712.59
2023-02-03T16:25:26.505Z,102712.63
2023-02-03T16:27:28.690Z,102724.72
2023-02-03T16:29:29.545Z,102721.22
2023-02-03T16:31:34.173Z,102722.06
2023-02-03T16:33:27.300Z,102731.66
2023-02-03T16:37:14.228Z,102729.88
2023-02-03T16:39:05.987Z,102731.63
2023-02-03T16:40:57.653Z,102726.41
2023-02-03T16:43:00.486Z,102729.88
2023-02-03T16:44:51.379Z,102727.19
2023-02-03T16:46:42.190Z,102727.94
2023-02-03T16:48:35.500Z,102733.09
2023-02-03T16:50:38.258Z,102730.38
2023-02-03T16:52:11.407Z,102734.75
2023-02-03T16:53:48.543Z,102739.06
2023-02-03T16:55:21.349Z,102732.06
2023-02-03T16:56:53.407Z,102739.91
2023-02-03T16:58:25.576Z,102740.78
2023-02-03T16:59:59.741Z,102738.03
2023-02-03T17:01:32.872Z,102751.13
2023-02-03T17:03:18.936Z,102745.06
2023-02-03T17:04:55.546Z,102750.34
2023-02-03T17:06:28.142Z,102749.41
2023-02-03T17:08:02.610Z,102754.63
2023-02-03T17:09:37.747Z,102752.88
2023-02-03T17:11:20.963Z,102757.25
2023-02-03T17:12:53.125Z,102766.81
2023-02-03T17:14:27.356Z,102765.91
2023-02-03T17:15:59.253Z,102769.38
2023-02-03T17:17:31.457Z,102756.25
2023-02-03T17:19:03.522Z,102759.81
2023-02-03T17:20:36.191Z,102756.25
2023-02-03T17:22:08.970Z,102762.38
2023-02-03T17:23:45.991Z,102757.06
2023-02-03T17:25:18.212Z,102769.19
2023-02-03T17:26:55.812Z,102774.41
2023-02-03T17:28:29.131Z,102774.41
2023-02-03T17:30:01.348Z,102778.69
2023-02-03T17:31:35.910Z,102786.53
2023-02-03T17:33:13.670Z,102788.19
2023-02-03T17:34:45.731Z,102785.50
2023-02-03T17:36:19.786Z,102783.72
2023-02-03T17:37:54.847Z,102785.44
2023-02-03T17:53:55.774Z,102814.81
2023-02-03T17:55:28.340Z,102822.69
2023-02-03T17:57:00.436Z,102825.38
2023-02-03T17:58:35.008Z,102820.03
2023-02-03T18:00:07.573Z,102826.13
2023-02-03T18:01:49.783Z,102828.75
2023-02-03T18:03:23.998Z,102825.25
2023-02-03T18:04:56.082Z,102827.03
2023-02-03T18:06:34.421Z,102833.22
2023-02-03T18:08:16.158Z,102829.69
2023-02-03T18:09:51.852Z,102841.88
2023-02-03T18:11:28.710Z,102848.03
2023-02-03T18:13:04.366Z,102840.16
2023-02-03T18:14:36.645Z,102847.09
2023-02-03T18:16:26.087Z,102847.09
2023-02-03T18:17:58.399Z,102853.13
2023-02-03T18:19:30.516Z,102852.22
2023-02-03T18:21:08.279Z,102860.88
2023-02-03T18:22:44.610Z,102852.09
2023-02-03T18:24:22.548Z,102864.31
2023-02-03T18:25:55.342Z,102864.38
2023-02-03T18:27:28.745Z,102860.88
2023-02-03T18:29:02.923Z,102861.78
2023-02-03T18:30:40.113Z,102867.94
2023-02-03T18:32:15.541Z,102872.38
2023-02-03T18:33:48.368Z,102880.19
2023-02-03T18:35:20.360Z,102882.91
2023-02-03T18:36:52.590Z,102882.00
2023-02-03T18:38:27.097Z,102885.50
2023-02-03T18:39:59.200Z,102881.13
2023-02-03T18:41:33.927Z,102882.00
2023-02-03T18:43:06.098Z,102890.69
2023-02-03T18:44:38.256Z,102888.97
2023-02-03T18:46:13.737Z,102883.84
2023-02-03T18:47:45.710Z,102888.16
2023-02-03T18:49:21.829Z,102898.59
2023-02-03T18:50:53.773Z,102890.81
2023-02-03T18:52:25.833Z,102897.81
2023-02-03T18:53:59.319Z,102897.78
2023-02-03T18:55:31.300Z,102891.66
2023-02-03T18:57:04.585Z,102901.16
2023-02-03T18:58:39.616Z,102892.50
2023-02-03T19:00:12.270Z,102900.22
2023-02-03T19:01:46.692Z,102901.16
2023-02-03T19:03:21.402Z,102901.13
2023-02-03T19:04:53.566Z,102908.16
2023-02-03T19:06:30.254Z,102896.84
2023-02-03T19:08:05.084Z,102901.16
2023-02-03T19:09:38.214Z,102906.47
2023-02-03T19:11:10.525Z,102901.28
2023-02-03T19:12:42.792Z,102910.81
2023-02-03T19:14:20.454Z,102902.16
2023-02-03T19:15:52.596Z,102914.31
2023-02-03T19:17:26.165Z,102916.03
2023-02-03T19:18:58.180Z,102911.72
2023-02-03T19:20:31.642Z,102904.75
2023-02-03T19:22:03.812Z,102903.88
2023-02-03T19:23:35.766Z,102907.22
2023-02-03T19:25:08.185Z,102898.59
2023-02-03T19:26:40.545Z,102905.44
2023-02-03T19:28:20.124Z,102901.06
2023-02-03T19:29:56.228Z,102890.53